createdAt,value
2019-03-27T00:02:18.689Z,99829.34
2019-03-27T00:04:47.081Z,99828.47
2019-03-27T00:07:15.474Z,99831.20
2019-03-27T00:09:43.871Z,99837.45
2019-03-27T00:12:12.334Z,99835.73
2019-03-27T00:14:40.729Z,99842.84
2019-03-27T00:17:09.114Z,99845.57
2019-03-27T00:19:37.558Z,99845.64
2019-03-27T00:22:06.024Z,99849.23
2019-03-27T00:24:34.408Z,99859.00
2019-03-27T00:27:02.808Z,99857.28
2019-03-27T00:29:31.199Z,99857.28
2019-03-27T00:31:59.612Z,99865.26
2019-03-27T00:34:28.089Z,99867.92
2019-03-27T00:36:56.518Z,99873.30
2019-03-27T00:39:24.926Z,99864.48
2019-03-27T00:41:53.352Z,99879.56
2019-03-27T00:44:21.745Z,99872.53
2019-03-27T00:46:50.182Z,99862.90
2019-03-27T00:49:18.568Z,99870.00
2019-03-27T00:51:46.986Z,99866.47
2019-03-27T00:54:15.377Z,99878.92
2019-03-27T00:56:43.797Z,99874.55
2019-03-27T00:59:12.195Z,99873.67
2019-03-27T01:01:40.692Z,99873.73
2019-03-27T01:04:09.086Z,99877.27
2019-03-27T01:06:37.492Z,99876.45
2019-03-27T01:09:06.118Z,99883.49
2019-03-27T01:11:34.505Z,99876.45
2019-03-27T01:14:02.893Z,99874.70
2019-03-27T01:16:31.285Z,99880.97
2019-03-27T01:18:59.682Z,99884.53
2019-03-27T01:21:28.202Z,99894.26
2019-03-27T01:23:56.593Z,99895.16
2019-03-27T01:26:24.975Z,99890.86
2019-03-27T01:28:53.365Z,99903.30
2019-03-27T01:31:21.748Z,99905.15
2019-03-27T01:33:50.130Z,99914.84
2019-03-27T01:36:18.522Z,99915.78
2019-03-27T01:38:46.934Z,99919.44
2019-03-27T01:41:15.324Z,99923.88
2019-03-27T01:43:43.707Z,99927.48
2019-03-27T01:46:12.092Z,99923.11
2019-03-27T01:48:40.482Z,99929.36
2019-03-27T01:51:08.864Z,99934.67
2019-03-27T01:53:37.433Z,99940.05
2019-03-27T01:56:05.822Z,99943.55
2019-03-27T01:58:34.245Z,99940.95
2019-03-27T02:01:02.672Z,99951.59
2019-03-27T02:03:31.181Z,99956.06
2019-03-27T02:05:59.565Z,99956.19
2019-03-27T02:08:28.046Z,99956.06
2019-03-27T02:10:56.504Z,99952.59
2019-03-27T02:13:24.929Z,99964.16
2019-03-27T02:16:05.903Z,99967.69
2019-03-27T02:18:23.473Z,99971.35
2019-03-27T02:20:51.860Z,99970.41
2019-03-27T02:23:20.287Z,99965.09
2019-03-27T02:25:48.865Z,99971.35
2019-03-27T02:28:17.292Z,99970.48
2019-03-27T02:30:45.676Z,99972.26
2019-03-27T02:33:14.105Z,99981.17
2019-03-27T02:35:42.494Z,99980.23
2019-03-27T02:38:10.949Z,99978.57
2019-03-27T02:40:39.356Z,99980.38
2019-03-27T02:43:07.789Z,99977.73
2019-03-27T02:45:36.172Z,99968.00
2019-03-27T02:48:04.614Z,99985.82
2019-03-27T02:50:32.999Z,99978.70
2019-03-27T02:53:01.437Z,99979.63
2019-03-27T02:55:29.787Z,99991.20
2019-03-27T02:57:58.168Z,99994.73
2019-03-27T03:00:26.556Z,99988.48
2019-03-27T03:02:54.942Z,100000.89
2019-03-27T03:05:23.335Z,100004.54
2019-03-27T03:07:51.730Z,100012.52
2019-03-27T03:10:20.142Z,100014.30
2019-03-27T03:12:48.538Z,100012.57
2019-03-27T03:15:20.186Z,100014.39
2019-03-27T03:17:49.014Z,100017.95
2019-03-27T03:20:17.411Z,100029.52
2019-03-27T03:22:45.840Z,100027.79
2019-03-27T03:25:14.232Z,100031.38
2019-03-27T03:27:42.668Z,100034.94
2019-03-27T03:30:11.170Z,100039.35
2019-03-27T03:32:39.892Z,100057.07
2019-03-27T03:35:08.766Z,100056.20
2019-03-27T03:37:37.188Z,100065.98
2019-03-27T03:40:06.358Z,100077.45
2019-03-27T03:42:34.759Z,100072.28
2019-03-27T03:45:03.420Z,100079.32
2019-03-27T03:47:31.811Z,100074.01
2019-03-27T03:50:00.520Z,100088.23
2019-03-27T03:52:29.001Z,100088.23
2019-03-27T03:54:57.463Z,100089.13
2019-03-27T03:57:26.929Z,100083.81
2019-03-27T03:59:55.314Z,100082.97
2019-03-27T04:02:23.711Z,100092.78
2019-03-27T04:04:52.181Z,100086.62
2019-03-27T04:07:20.571Z,100095.49
2019-03-27T04:09:48.981Z,100106.99
2019-03-27T04:12:17.379Z,100108.77
2019-03-27T04:14:45.754Z,100111.42
2019-03-27T04:17:17.388Z,100113.30
2019-03-27T04:19:44.299Z,100118.61
2019-03-27T04:22:12.684Z,100123.92
2019-03-27T04:24:41.095Z,100123.05
2019-03-27T04:27:09.502Z,100140.70
2019-03-27T04:29:37.915Z,100133.67
2019-03-27T04:32:06.331Z,100136.38
2019-03-27T04:34:34.742Z,100140.80
2019-03-27T04:37:03.131Z,100137.37
2019-03-27T04:39:31.511Z,100138.25
2019-03-27T04:41:59.904Z,100139.09
2019-03-27T04:44:28.314Z,100147.15
2019-03-27T04:46:56.883Z,100155.91
2019-03-27T04:49:25.318Z,100159.50
2019-03-27T04:51:53.710Z,100162.16
2019-03-27T04:54:22.208Z,100163.09
2019-03-27T04:56:50.603Z,100166.64
2019-03-27T04:59:19.118Z,100169.24
2019-03-27T05:01:47.516Z,100173.70
2019-03-27T05:04:16.002Z,100164.05
2019-03-27T05:06:44.397Z,100171.16
2019-03-27T05:09:12.814Z,100171.95
2019-03-27T05:11:41.275Z,100179.13
2019-03-27T05:14:09.711Z,100184.45
2019-03-27T05:16:38.198Z,100189.76
2019-03-27T05:19:06.717Z,100193.34
2019-03-27T05:21:35.130Z,100194.25
2019-03-27T05:24:03.561Z,100199.55
2019-03-27T05:26:31.945Z,100198.77
2019-03-27T05:29:00.393Z,100198.77
2019-03-27T05:31:28.790Z,100204.08
2019-03-27T05:33:57.225Z,100211.99
2019-03-27T05:36:25.622Z,100210.23
2019-03-27T05:38:54.032Z,100220.80
2019-03-27T05:41:22.425Z,100228.77
2019-03-27T05:43:50.861Z,100235.84
2019-03-27T05:46:19.241Z,100238.41
2019-03-27T05:48:47.670Z,100247.30
2019-03-27T05:51:16.101Z,100246.47
2019-03-27T05:53:44.522Z,100257.98
2019-03-27T05:56:12.990Z,100257.98
2019-03-27T05:58:41.418Z,100258.92
2019-03-27T06:01:09.809Z,100260.64
2019-03-27T06:03:38.347Z,100264.23
2019-03-27T06:06:06.744Z,100264.23
2019-03-27T06:08:35.143Z,100265.11
2019-03-27T06:11:03.537Z,100273.97
2019-03-27T06:13:31.937Z,100280.16
2019-03-27T06:16:00.329Z,100286.22
2019-03-27T06:18:28.722Z,100282.52
2019-03-27T06:20:57.134Z,100288.61
2019-03-27T06:23:25.528Z,100285.84
2019-03-27T06:25:53.935Z,100284.81
2019-03-27T06:28:22.323Z,100283.77
2019-03-27T06:30:50.717Z,100289.66
2019-03-27T06:33:19.114Z,100306.23
2019-03-27T06:35:47.512Z,100307.71
2019-03-27T06:38:15.908Z,100308.37
2019-03-27T06:40:44.303Z,100310.77
2019-03-27T06:43:12.698Z,100324.72
2019-03-27T06:45:41.158Z,100323.62
2019-03-27T06:48:09.551Z,100311.88
2019-03-27T06:50:37.942Z,100317.88
2019-03-27T06:53:06.338Z,100313.27
2019-03-27T06:55:34.852Z,100324.52
2019-03-27T06:58:03.246Z,100326.13
2019-03-27T07:00:35.664Z,100334.78
2019-03-27T07:03:04.623Z,100339.98
2019-03-27T07:05:33.019Z,100341.59
2019-03-27T07:08:01.883Z,100341.45
2019-03-27T07:10:30.280Z,100337.73
2019-03-27T07:12:58.676Z,100343.82
2019-03-27T07:15:27.093Z,100332.13
2019-03-27T07:17:55.486Z,100339.92
2019-03-27T07:20:23.884Z,100342.44
2019-03-27T07:22:52.279Z,100347.64
2019-03-27T07:25:20.691Z,100356.30
2019-03-27T07:27:49.091Z,100354.39
2019-03-27T07:30:17.517Z,100356.90
2019-03-27T07:32:45.911Z,100351.48
2019-03-27T07:35:14.343Z,100356.63
2019-03-27T07:37:42.741Z,100355.56
2019-03-27T07:40:11.166Z,100355.35
2019-03-27T07:42:39.577Z,100362.37
2019-03-27T07:45:08.011Z,100371.15
2019-03-27T07:47:36.541Z,100364.82
2019-03-27T07:50:06.896Z,100359.44
2019-03-27T07:52:35.355Z,100356.65
2019-03-27T07:55:04.179Z,100350.44
2019-03-27T07:57:32.573Z,100351.20
2019-03-27T08:00:01.003Z,100354.64
2019-03-27T08:02:29.398Z,100357.24
2019-03-27T08:04:57.823Z,100365.05
2019-03-27T08:07:27.295Z,100369.37
2019-03-27T08:09:55.797Z,100379.15
2019-03-27T08:12:24.263Z,100379.02
2019-03-27T08:14:52.699Z,100384.23
2019-03-27T08:17:21.096Z,100387.67
2019-03-27T08:19:49.486Z,100393.88
2019-03-27T08:22:17.881Z,100397.08
2019-03-27T08:24:46.282Z,100389.92
2019-03-27T08:27:14.779Z,100393.28
2019-03-27T08:29:43.322Z,100394.06
2019-03-27T08:32:11.722Z,100393.00
2019-03-27T08:34:40.137Z,100393.58
2019-03-27T08:37:08.548Z,100390.59
2019-03-27T08:39:36.941Z,100390.20
2019-03-27T08:42:05.335Z,100390.66
2019-03-27T08:44:33.729Z,100392.89
2019-03-27T08:47:02.180Z,100401.47
2019-03-27T08:49:30.565Z,100412.06
2019-03-27T08:51:58.999Z,100412.06
2019-03-27T08:54:27.384Z,100412.81
2019-03-27T08:56:55.802Z,100415.05
2019-03-27T09:01:51.773Z,100415.48
2019-03-27T09:04:20.371Z,100420.65
2019-03-27T09:06:48.802Z,100408.19
2019-03-27T09:09:17.194Z,100412.80
2019-03-27T09:11:45.635Z,100414.28
2019-03-27T09:14:14.026Z,100422.19
2019-03-27T09:16:42.453Z,100419.16
2019-03-27T09:19:11.036Z,100414.31
2019-03-27T09:21:39.586Z,100405.84
2019-03-27T09:24:08.085Z,100418.83
2019-03-27T09:26:36.652Z,100421.18
2019-03-27T09:29:08.246Z,100415.62
2019-03-27T09:31:44.880Z,100418.11
2019-03-27T09:34:05.371Z,100421.37
2019-03-27T09:36:33.790Z,100412.95
2019-03-27T09:39:02.309Z,100416.79
2019-03-27T09:41:30.816Z,100402.51
2019-03-27T09:43:59.292Z,100408.88
2019-03-27T09:46:27.773Z,100417.40
2019-03-27T09:48:56.257Z,100409.84
2019-03-27T09:51:24.680Z,100414.09
2019-03-27T09:53:53.453Z,100412.72
2019-03-27T09:56:22.015Z,100409.39
2019-03-27T09:58:50.488Z,100423.06
2019-03-27T10:01:19.067Z,100417.72
2019-03-27T10:03:47.664Z,100428.41
2019-03-27T10:06:16.115Z,100424.63
2019-03-27T10:08:44.611Z,100431.11
2019-03-27T10:11:13.096Z,100420.78
2019-03-27T10:13:41.586Z,100421.33
2019-03-27T10:16:10.042Z,100413.06
2019-03-27T10:18:38.454Z,100420.49
2019-03-27T10:21:06.968Z,100408.14
2019-03-27T10:23:35.377Z,100414.46
2019-03-27T10:26:03.800Z,100411.16
2019-03-27T10:28:32.358Z,100404.00
2019-03-27T10:31:00.785Z,100400.42
2019-03-27T10:33:29.321Z,100411.84
2019-03-27T10:35:57.801Z,100397.44
2019-03-27T10:38:26.309Z,100400.16
2019-03-27T10:40:54.724Z,100401.72
2019-03-27T10:43:23.245Z,100397.79
2019-03-27T10:45:51.669Z,100401.05
2019-03-27T10:48:20.207Z,100398.70
2019-03-27T10:50:48.689Z,100408.02
2019-03-27T10:53:17.166Z,100396.20
2019-03-27T10:55:45.589Z,100401.28
2019-03-27T10:58:14.027Z,100398.21
2019-03-27T11:00:42.517Z,100403.73
2019-03-27T11:03:10.996Z,100413.11
2019-03-27T11:05:39.545Z,100410.61
2019-03-27T11:08:11.259Z,100402.39
2019-03-27T11:10:38.381Z,100398.34
2019-03-27T11:13:06.877Z,100410.61
2019-03-27T11:15:35.294Z,100410.72
2019-03-27T11:18:03.821Z,100414.31
2019-03-27T11:20:32.275Z,100408.73
2019-03-27T11:23:00.782Z,100402.77
2019-03-27T11:25:32.836Z,100402.42
2019-03-27T11:27:59.486Z,100407.62
2019-03-27T11:30:36.157Z,100413.89
2019-03-27T11:33:05.221Z,100415.86
2019-03-27T11:35:33.645Z,100413.54
2019-03-27T11:38:02.213Z,100406.55
2019-03-27T11:40:30.697Z,100407.23
2019-03-27T11:42:59.180Z,100407.85
2019-03-27T11:45:27.598Z,100397.41
2019-03-27T11:47:56.142Z,100409.37
2019-03-27T11:50:24.565Z,100406.87
2019-03-27T11:52:53.099Z,100404.04
2019-03-27T11:55:21.520Z,100404.91
2019-03-27T11:57:51.516Z,100409.36
2019-03-27T12:00:19.936Z,100410.30
2019-03-27T12:02:48.457Z,100414.30
2019-03-27T12:05:16.874Z,100411.52
2019-03-27T12:07:45.352Z,100413.58
2019-03-27T12:10:14.208Z,100410.75
2019-03-27T12:12:42.689Z,100415.38
2019-03-27T12:15:11.168Z,100418.27
2019-03-27T12:17:39.651Z,100413.31
2019-03-27T12:20:08.072Z,100419.06
2019-03-27T12:22:36.524Z,100410.84
2019-03-27T12:25:05.673Z,100416.28
2019-03-27T12:27:34.126Z,100404.80
2019-03-27T12:30:05.329Z,100414.45
2019-03-27T12:32:33.915Z,100407.91
2019-03-27T12:35:02.395Z,100415.86
2019-03-27T12:37:30.878Z,100402.76
2019-03-27T12:39:59.357Z,100398.42
2019-03-27T12:42:27.839Z,100410.56
2019-03-27T12:44:56.296Z,100404.97
2019-03-27T12:47:24.716Z,100418.87
2019-03-27T12:49:53.215Z,100409.16
2019-03-27T12:52:21.742Z,100403.50
2019-03-27T12:54:50.218Z,100400.69
2019-03-27T12:57:18.676Z,100403.12
2019-03-27T12:59:47.106Z,100397.09
2019-03-27T13:02:15.516Z,100398.16
2019-03-27T13:04:43.947Z,100399.05
2019-03-27T13:07:12.363Z,100407.66
2019-03-27T13:09:40.783Z,100399.53
2019-03-27T13:12:09.200Z,100394.00
2019-03-27T13:14:37.682Z,100402.54
2019-03-27T13:17:06.162Z,100397.70
2019-03-27T13:19:34.646Z,100401.95
2019-03-27T13:22:03.127Z,100397.80
2019-03-27T13:24:31.603Z,100394.94
2019-03-27T13:27:00.019Z,100386.44
2019-03-27T13:29:28.441Z,100378.98
2019-03-27T13:31:56.854Z,100381.60
2019-03-27T13:34:25.322Z,100382.23
2019-03-27T13:36:53.747Z,100380.20
2019-03-27T13:39:22.287Z,100369.05
2019-03-27T13:41:50.709Z,100375.03
2019-03-27T13:44:19.147Z,100363.59
2019-03-27T13:46:47.665Z,100360.25
2019-03-27T13:49:16.413Z,100367.89
2019-03-27T13:51:44.895Z,100367.34
2019-03-27T13:54:13.336Z,100363.11
2019-03-27T13:56:41.860Z,100363.73
2019-03-27T13:59:10.643Z,100364.59
2019-03-27T14:01:39.070Z,100363.98
2019-03-27T14:04:07.607Z,100372.03
2019-03-27T14:06:36.025Z,100363.56
2019-03-27T14:09:07.094Z,100363.77
2019-03-27T14:11:35.613Z,100367.80
2019-03-27T14:14:11.219Z,100364.59
2019-03-27T14:16:34.295Z,100361.62
2019-03-27T14:19:02.798Z,100358.56
2019-03-27T14:21:31.276Z,100354.09
2019-03-27T14:23:59.754Z,100353.16
2019-03-27T14:26:28.473Z,100339.47
2019-03-27T14:28:57.087Z,100349.16
2019-03-27T14:31:25.609Z,100342.02
2019-03-27T14:33:54.193Z,100342.77
2019-03-27T14:36:22.617Z,100338.14
2019-03-27T14:38:51.084Z,100338.35
2019-03-27T14:41:19.515Z,100327.98
2019-03-27T14:43:47.988Z,100323.89
2019-03-27T14:46:16.415Z,100324.68
2019-03-27T14:48:44.976Z,100322.01
2019-03-27T14:51:13.403Z,100319.14
2019-03-27T14:53:41.934Z,100324.94
2019-03-27T14:56:10.370Z,100325.82
2019-03-27T14:58:38.889Z,100316.66
2019-03-27T15:01:07.496Z,100315.36
2019-03-27T15:03:36.081Z,100321.84
2019-03-27T15:06:04.701Z,100319.15
2019-03-27T15:08:33.347Z,100315.41
2019-03-27T15:11:01.927Z,100309.79
2019-03-27T15:13:30.511Z,100304.16
2019-03-27T15:15:59.093Z,100308.95
2019-03-27T15:18:27.682Z,100291.34
2019-03-27T15:20:56.269Z,100298.91
2019-03-27T15:23:24.844Z,100290.19
2019-03-27T15:25:53.332Z,100288.58
2019-03-27T15:28:21.910Z,100291.50
2019-03-27T15:30:50.601Z,100284.29
2019-03-27T15:33:19.183Z,100287.90
2019-03-27T15:35:47.766Z,100283.37
2019-03-27T15:38:16.346Z,100271.75
2019-03-27T15:40:45.958Z,100277.95
2019-03-27T15:43:14.645Z,100267.80
2019-03-27T15:45:43.223Z,100275.73
2019-03-27T15:48:11.749Z,100269.20
2019-03-27T15:50:53.793Z,100273.47
2019-03-27T15:53:11.025Z,100269.56
2019-03-27T15:55:39.606Z,100278.31
2019-03-27T15:58:08.206Z,100280.63
2019-03-27T16:00:36.773Z,100281.19
2019-03-27T16:03:05.353Z,100276.42
2019-03-27T16:05:33.963Z,100274.30
2019-03-27T16:08:02.518Z,100281.00
2019-03-27T16:10:31.104Z,100281.58
2019-03-27T16:12:59.691Z,100271.44
2019-03-27T16:15:28.266Z,100273.73
2019-03-27T16:17:56.853Z,100274.28
2019-03-27T16:20:25.536Z,100272.95
2019-03-27T16:22:54.131Z,100277.91
2019-03-27T16:25:22.840Z,100276.55
2019-03-27T16:27:51.394Z,100279.64
2019-03-27T16:30:19.975Z,100277.44
2019-03-27T16:32:48.769Z,100274.34
2019-03-27T16:35:19.302Z,100281.01
2019-03-27T16:37:47.800Z,100283.19
2019-03-27T16:40:18.098Z,100293.39
2019-03-27T16:42:46.686Z,100292.89
2019-03-27T16:45:15.263Z,100290.64
2019-03-27T16:47:43.765Z,100300.75
2019-03-27T16:50:12.254Z,100298.52
2019-03-27T16:52:40.810Z,100300.58
2019-03-27T16:55:09.397Z,100306.25
2019-03-27T16:57:37.979Z,100304.02
2019-03-27T17:00:08.205Z,100300.72
2019-03-27T17:02:37.198Z,100303.75
2019-03-27T17:05:07.415Z,100314.69
2019-03-27T17:07:40.624Z,100307.02
2019-03-27T17:10:09.093Z,100312.61
2019-03-27T17:12:37.672Z,100322.77
2019-03-27T17:15:07.547Z,100324.76
2019-03-27T17:17:36.170Z,100318.77
2019-03-27T17:20:08.027Z,100323.44
2019-03-27T17:22:36.713Z,100322.90
2019-03-27T17:25:07.066Z,100327.52
2019-03-27T17:27:36.030Z,100333.11
2019-03-27T17:30:06.830Z,100328.86
2019-03-27T17:32:35.349Z,100339.70
2019-03-27T17:35:05.434Z,100339.86
2019-03-27T17:37:33.868Z,100342.80
2019-03-27T17:40:02.428Z,100342.94
2019-03-27T17:42:31.014Z,100351.11
2019-03-27T17:45:00.017Z,100345.98
2019-03-27T17:47:28.686Z,100353.23
2019-03-27T17:49:57.277Z,100349.87
2019-03-27T17:52:26.266Z,100358.03
2019-03-27T17:54:55.973Z,100362.64
2019-03-27T17:57:25.380Z,100360.16
2019-03-27T17:59:53.962Z,100362.97
2019-03-27T18:02:22.650Z,100369.33
2019-03-27T18:04:51.235Z,100370.35
2019-03-27T18:07:19.816Z,100373.17
2019-03-27T18:09:48.808Z,100375.98
2019-03-27T18:12:17.393Z,100378.72
2019-03-27T18:14:46.286Z,100378.02
2019-03-27T18:17:14.854Z,100379.89
2019-03-27T18:19:43.440Z,100383.58
2019-03-27T18:22:13.353Z,100388.98
2019-03-27T18:24:43.588Z,100387.41
2019-03-27T18:27:12.675Z,100387.48
2019-03-27T18:29:41.256Z,100394.64
2019-03-27T18:32:09.840Z,100393.03
2019-03-27T18:34:38.424Z,100391.30
2019-03-27T18:37:06.900Z,100395.91
2019-03-27T18:39:35.488Z,100391.52
2019-03-27T18:42:04.168Z,100389.87
2019-03-27T18:44:32.756Z,100386.39
2019-03-27T18:47:01.340Z,100390.95
2019-03-27T18:49:29.832Z,100391.02
2019-03-27T18:51:58.456Z,100396.43
2019-03-27T18:54:27.396Z,100394.78
2019-03-27T18:56:55.987Z,100394.84
2019-03-27T18:59:24.667Z,100398.45
2019-03-27T19:01:53.247Z,100394.98
2019-03-27T19:04:21.649Z,100396.00
2019-03-27T19:06:50.058Z,100404.07
2019-03-27T19:09:18.540Z,100397.95
2019-03-27T19:11:46.945Z,100411.36
2019-03-27T19:14:15.361Z,100404.31
2019-03-27T19:16:43.761Z,100406.16
2019-03-27T19:19:12.165Z,100413.32
2019-03-27T19:21:40.636Z,100412.52
2019-03-27T19:24:14.969Z,100410.86
2019-03-27T19:26:39.174Z,100423.31
2019-03-27T19:29:07.571Z,100416.33
2019-03-27T19:31:35.994Z,100416.39
2019-03-27T19:34:04.468Z,100422.67
2019-03-27T19:36:33.041Z,100419.23
2019-03-27T19:39:01.447Z,100417.47
2019-03-27T19:41:30.146Z,100421.14
2019-03-27T19:43:58.547Z,100418.48
2019-03-27T19:46:28.574Z,100427.49
2019-03-27T19:48:59.721Z,100426.61
2019-03-27T19:51:28.145Z,100425.84
2019-03-27T19:53:56.613Z,100430.36
2019-03-27T19:56:25.011Z,100433.09
2019-03-27T19:58:53.408Z,100426.98
2019-03-27T20:01:21.836Z,100427.92
2019-03-27T20:03:50.230Z,100435.04
2019-03-27T20:06:18.675Z,100434.16
2019-03-27T20:08:47.070Z,100444.05
2019-03-27T20:11:15.537Z,100430.78
2019-03-27T20:13:44.085Z,100444.18
2019-03-27T20:16:12.534Z,100441.51
2019-03-27T20:18:40.934Z,100445.12
2019-03-27T20:21:09.374Z,100438.91
2019-03-27T20:23:37.774Z,100439.85
2019-03-27T20:26:06.197Z,100436.24
2019-03-27T20:28:34.597Z,100437.12
2019-03-27T20:31:03.028Z,100444.18
2019-03-27T20:33:31.423Z,100437.12
2019-03-27T20:35:59.856Z,100438.91
2019-03-27T20:38:28.257Z,100441.64
2019-03-27T20:40:56.702Z,100438.13
2019-03-27T20:43:25.094Z,100428.47
2019-03-27T20:45:53.501Z,100427.66
2019-03-27T20:48:21.909Z,100432.20
2019-03-27T20:50:50.308Z,100429.64
2019-03-27T20:53:18.714Z,100437.70
2019-03-27T20:55:47.122Z,100431.65
2019-03-27T20:58:15.530Z,100427.23
2019-03-27T21:00:43.937Z,100430.05
2019-03-27T21:03:12.341Z,100431.13
2019-03-27T21:05:40.748Z,100437.30
2019-03-27T21:08:09.154Z,100434.79
2019-03-27T21:10:37.549Z,100428.64
2019-03-27T21:13:05.965Z,100435.86
2019-03-27T21:15:34.440Z,100427.92
2019-03-27T21:18:02.832Z,100422.72
2019-03-27T21:20:31.269Z,100433.37
2019-03-27T21:22:59.671Z,100434.31
2019-03-27T21:25:28.066Z,100438.83
2019-03-27T21:27:57.009Z,100440.71
2019-03-27T21:30:25.411Z,100443.50
2019-03-27T21:32:53.845Z,100449.77
2019-03-27T21:35:22.240Z,100448.02
2019-03-27T21:37:50.667Z,100448.95
2019-03-27T21:40:19.072Z,100452.62
2019-03-27T21:42:47.515Z,100450.02
2019-03-27T21:45:15.981Z,100452.67
2019-03-27T21:47:44.412Z,100447.41
2019-03-27T21:50:12.807Z,100448.34
2019-03-27T21:52:41.246Z,100447.63
2019-03-27T21:55:22.035Z,100449.34
2019-03-27T21:57:39.818Z,100457.46
2019-03-27T22:00:08.283Z,100455.73
2019-03-27T22:02:36.713Z,100454.02
2019-03-27T22:05:06.476Z,100445.20
2019-03-27T22:07:34.908Z,100444.33
2019-03-27T22:10:03.970Z,100446.20
2019-03-27T22:12:32.372Z,100458.58
2019-03-27T22:15:00.768Z,100457.73
2019-03-27T22:17:29.170Z,100455.97
2019-03-27T22:19:57.549Z,100461.36
2019-03-27T22:22:25.932Z,100460.52
2019-03-27T22:24:54.309Z,100455.19
2019-03-27T22:27:22.681Z,100457.03
2019-03-27T22:29:51.052Z,100459.70
2019-03-27T22:32:19.441Z,100461.52
2019-03-27T22:34:47.816Z,100459.84
2019-03-27T22:37:16.220Z,100462.42
2019-03-27T22:39:44.599Z,100456.24
2019-03-27T22:42:12.998Z,100458.03
2019-03-27T22:44:41.372Z,100454.52
2019-03-27T22:47:09.735Z,100466.02
2019-03-27T22:49:38.132Z,100462.51
2019-03-27T22:52:06.615Z,100462.57
2019-03-27T22:54:34.992Z,100458.09
2019-03-27T22:57:03.372Z,100464.35
2019-03-27T22:59:31.751Z,100467.89
2019-03-27T23:02:00.139Z,100465.29
2019-03-27T23:04:28.537Z,100465.29
2019-03-27T23:06:56.914Z,100460.90
2019-03-27T23:09:25.291Z,100460.08
2019-03-27T23:11:53.665Z,100459.20
2019-03-27T23:14:22.131Z,100464.62
2019-03-27T23:16:50.652Z,100468.13
2019-03-27T23:19:19.041Z,100464.62
2019-03-27T23:21:47.448Z,100470.00
2019-03-27T23:24:15.829Z,100479.77
2019-03-27T23:26:44.197Z,100481.56
2019-03-27T23:29:12.579Z,100476.33
2019-03-27T23:31:40.973Z,100478.11
2019-03-27T23:34:09.357Z,100465.79
2019-03-27T23:36:37.737Z,100476.44
2019-03-27T23:39:07.652Z,100475.62
2019-03-27T23:41:36.027Z,100465.91
2019-03-27T23:44:04.407Z,100465.91
2019-03-27T23:46:32.789Z,100460.58
2019-03-27T23:49:01.253Z,100458.86
2019-03-27T23:51:29.694Z,100460.64
2019-03-27T23:53:58.091Z,100461.55
2019-03-27T23:56:26.525Z,100465.14
2019-03-27T23:58:54.930Z,100460.66
